• Join FlightAware (Why Join?)
  • Login
  • US Flag 
03:11PM EDT


 

Airport Tracker/Info


-or-


 

Live Flight TrackerFlight Track Log ✈ FDX1486 ✈ 23-Jul-2013 ✈ KMEM - KLCK

Flight Track Log - Related Links

Times and Time Zones

All times are in EDT time to prevent confusion due to time zone crossing. See the FDX1486 flight status page for this flight to view local times or setup timezone preferences in your user account.

Time Position Orientation Groundspeed Altitude Reporting Facility
EDT Latitude Longitude Course Direction KTS MPH feet Rate Location/Type
05:02AM 35.0167 -89.9667 165° South 171 197 1,200  Level KMEM
05:03AM 34.9667 -89.9500 165° South 244 281 3,700 3,000 Climbing KMEM
05:04AM 34.9167 -89.8833 132° Southeast 315 362 7,900 3,360 Climbing KMEM
05:06AM 34.9831 -89.7589 57° Northeast 350 403 12,300 2,940 Climbing Memphis Center
05:07AM 35.0783 -89.6719 37° Northeast 371 427 15,200 2,820 Climbing Memphis Center
05:08AM 35.1781 -89.5975 31° Northeast 401 461 18,000 2,940 Climbing Memphis Center
05:09AM 35.2631 -89.4872 47° Northeast 425 489 21,100 2,760 Climbing Memphis Center
05:10AM 35.3517 -89.3744 46° Northeast 443 510 23,600 2,340 Climbing Memphis Center
05:11AM 35.4364 -89.2561 49° Northeast 460 529 25,800 2,100 Climbing Memphis Center
05:12AM 35.5331 -89.1325 46° Northeast 484 557 27,900 2,400 Climbing Memphis Center
05:13AM 35.6278 -89.0083 47° Northeast 484 557 30,700 480 Climbing Memphis Center
05:18AM 36.0830 -88.3970 47° Northeast 35,000 360 Climbing FlightAware
05:19AM 36.1890 -88.2530 48° Northeast 36,400 120 Climbing FlightAware
05:20AM 36.3160 -88.0810 47° Northeast 37,000  Climbing FlightAware
05:21AM 36.3820 -87.9900 48° Northeast 37,000  Level FlightAware
05:22AM 36.4460 -87.9030 48° Northeast 37,000  Level FlightAware
05:22AM 36.5050 -87.8210 48° Northeast 37,000  Level FlightAware
05:23AM 36.5470 -87.7650 47° Northeast 37,000  Level FlightAware
05:24AM 36.6120 -87.6750 48° Northeast 37,000  Level FlightAware
05:24AM 36.6620 -87.6050 48° Northeast 37,000  Level FlightAware
05:25AM 36.7190 -87.5270 48° Northeast 37,000  Level FlightAware
05:26AM 36.7840 -87.4360 48° Northeast 37,000  Level FlightAware
05:26AM 36.8350 -87.3660 48° Northeast 37,000  Level FlightAware
05:27AM 36.9088 -87.2610 49° Northeast 37,000  Level FlightAware ADS-B
05:28AM 36.9490 -87.1760 59° Northeast 37,000  Level FlightAware
05:28AM 36.9890 -87.0690 65° Northeast 37,000  Level FlightAware
05:29AM 37.0300 -86.9580 65° Northeast 37,000  Level FlightAware
05:30AM 37.0670 -86.8610 64° Northeast 37,000  Level FlightAware
05:30AM 37.0938 -86.7898 65° Northeast 481 554 37,000  Level FlightAware ADS-B
05:31AM 37.1230 -86.7120 65° Northeast 37,000  Level FlightAware
05:31AM 37.1420 -86.6614 65° Northeast 487 560 37,000  Level FlightAware ADS-B
05:31AM 37.1712 -86.5846 64° Northeast 490 564 37,000  Level FlightAware ADS-B
05:32AM 37.2016 -86.5044 65° Northeast 495 570 37,000  Level FlightAware ADS-B
05:32AM 37.2340 -86.4258 63° Northeast 476 548 37,000  Level FlightAware ADS-B
05:33AM 37.2801 -86.3561 50° Northeast 498 573 37,000  Level FlightAware ADS-B
05:34AM 37.3274 -86.2942 46° Northeast 482 555 37,000  Level FlightAware ADS-B
05:34AM 37.3780 -86.2277 46° Northeast 491 565 37,000  Level FlightAware ADS-B
05:35AM 37.4260 -86.1651 46° Northeast 501 577 37,000  Level FlightAware ADS-B
05:35AM 37.4739 -86.1024 46° Northeast 494 568 37,000  Level FlightAware ADS-B
05:36AM 37.5214 -86.0403 46° Northeast 492 566 37,000  Level FlightAware ADS-B
05:36AM 37.5689 -85.9788 46° Northeast 478 550 37,000 -120 Level FlightAware ADS-B
05:37AM 37.6167 -85.9150 47° Northeast 501 577 36,900 -600 Descending FlightAware ADS-B
05:37AM 37.6647 -85.8516 46° Northeast 494 568 36,400 -1,020 Descending FlightAware ADS-B
05:38AM 37.7720 -85.7100 46° Northeast 35,300 -1,020 Descending FlightAware
05:39AM 37.8360 -85.6250 46° Northeast 34,600 -1,020 Descending FlightAware
05:40AM 37.9020 -85.5370 46° Northeast 33,900 -1,020 Descending FlightAware
05:40AM 37.9620 -85.4570 46° Northeast 33,300 -1,020 Descending FlightAware
05:41AM 38.0320 -85.3620 47° Northeast 32,600 -1,020 Descending FlightAware
05:42AM 38.0940 -85.2790 46° Northeast 32,000 -1,020 Descending FlightAware
05:42AM 38.1520 -85.2010 47° Northeast 31,300 -1,020 Descending FlightAware
05:43AM 38.2200 -85.1090 47° Northeast 31,000 -1,020 Descending FlightAware
05:44AM 38.2850 -85.0210 47° Northeast 31,000 -1,020 Level FlightAware
05:44AM 38.3550 -84.9270 46° Northeast 31,000 -1,080 Level FlightAware
05:45AM 38.4170 -84.8420 47° Northeast 31,000 -1,080 Level FlightAware
05:46AM 38.4810 -84.7550 47° Northeast 31,000 -1,080 Level FlightAware
05:47AM 38.6080 -84.5800 47° Northeast 31,000 -1,140 Level FlightAware
05:48AM 38.6620 -84.5050 47° Northeast 31,000 -1,200 Level FlightAware
05:49AM 38.7900 -84.3300 47° Northeast 31,000 -1,200 Level FlightAware
05:50AM 38.8420 -84.2570 48° Northeast 29,200 -1,320 Descending FlightAware
05:53AM 39.1650 -83.8040 47° Northeast 16,900 -1,260 Descending FlightAware
05:54AM 39.2520 -83.6810 48° Northeast 13,600 -840 Descending FlightAware
05:56AM 39.3550 -83.5350 48° Northeast 11,100 -720 Descending FlightAware
05:57AM 39.4170 -83.4470 48° Northeast 10,600 -600 Descending FlightAware
05:57AM 39.4450 -83.4100 46° Northeast 9,900 -600 Descending FlightAware
05:58AM 39.4810 -83.3660 43° Northeast 8,900 -600 Descending FlightAware
05:59AM 39.5460 -83.2710 48° Northeast 7,000 -540 Descending FlightAware
06:03AM 39.7600 -82.9890 45° Northeast 3,100 -420 Descending FlightAware
06:04AM 39.7690 -82.9700 58° Northeast 3,100 -240 Level FlightAware
06:04AM 39.7720 -82.9330 84° East 3,100 -240 Level FlightAware
06:04AM 39.7720 -82.9160 90° East 3,100 -240 Level FlightAware
06:05AM 39.7740 -82.8820 86° East 3,100 -240 Level FlightAware
06:05AM 39.7760 -82.8330 87° East 3,100 -240 Level FlightAware
06:06AM 39.7790 -82.8090 81° East 3,100 -240 Level FlightAware
06:06AM 39.7870 -82.7940 55° Northeast 3,100 -300 Level FlightAware
06:06AM 39.8060 -82.7680 46° Northeast 3,100 -300 Level FlightAware
06:07AM 39.8300 -82.7320 49° Northeast 3,100 -300 Level FlightAware
06:07AM 39.8380 -82.7210 47° Northeast 3,100 -300 Level FlightAware
06:07AM 39.8660 -82.6890 41° Northeast 3,000 -360 Descending FlightAware
06:08AM 39.8780 -82.6870 North 2,900 -360 Descending FlightAware
06:08AM 39.8970 -82.6880 358° North 2,700 -360 Descending FlightAware
06:08AM 39.9230 -82.6930 352° North 2,600 -300 Descending FlightAware
06:09AM 39.9300 -82.7070 303° West 2,600 -300 Level FlightAware
06:09AM 39.9310 -82.7160 278° West 2,600 -360 Level FlightAware
06:09AM 39.9270 -82.7390 257° West 2,600 -360 Level FlightAware
06:10AM 39.9190 -82.7670 250° West 2,600 -420 Level FlightAware
06:10AM 39.9130 -82.7860 248° West 2,600 -480 Level FlightAware
06:10AM 39.9010 -82.8120 239° Southwest 2,600 -540 Level FlightAware
06:11AM 39.8870 -82.8290 223° Southwest 2,500 -660 Descending FlightAware
06:11AM 39.8780 -82.8420 228° Southwest 2,300 -720 Descending FlightAware
06:12AM 39.8660 -82.8580 226° Southwest 2,000 -720 Descending FlightAware
06:12AM 39.8469 -82.8817 226° Southwest 147 169 1,400 -600 Descending Indianapolis Center
06:13AM 39.8231 -82.9136 226° Southwest 138 159 1,000 -420 Descending Indianapolis Center